sensor_id;sensor_type;location;lat;lon;timestamp;pressure;altitude;pressure_sealevel;temperature
76541;BMP280;65385;55.772;37.658;2024-02-14T00:00:50;100699.78;;;-11.34
76541;BMP280;65385;55.772;37.658;2024-02-14T00:01:51;100712.28;;;-11.32
76541;BMP280;65385;55.772;37.658;2024-02-14T00:02:51;100712.56;;;-11.37
76541;BMP280;65385;55.772;37.658;2024-02-14T00:03:52;100697.75;;;-11.43
76541;BMP280;65385;55.772;37.658;2024-02-14T00:04:53;100714.81;;;-11.32
76541;BMP280;65385;55.772;37.658;2024-02-14T00:05:54;100705.13;;;-11.40
76541;BMP280;65385;55.772;37.658;2024-02-14T00:06:57;100711.78;;;-11.39
76541;BMP280;65385;55.772;37.658;2024-02-14T00:07:58;100712.13;;;-11.45
76541;BMP280;65385;55.772;37.658;2024-02-14T00:08:58;100705.63;;;-11.49
76541;BMP280;65385;55.772;37.658;2024-02-14T00:09:59;100707.41;;;-11.51
76541;BMP280;65385;55.772;37.658;2024-02-14T00:11:00;100698.22;;;-11.52
76541;BMP280;65385;55.772;37.658;2024-02-14T00:12:00;100702.50;;;-11.54
76541;BMP280;65385;55.772;37.658;2024-02-14T00:13:02;100702.50;;;-11.54
76541;BMP280;65385;55.772;37.658;2024-02-14T00:14:03;100705.72;;;-11.51
76541;BMP280;65385;55.772;37.658;2024-02-14T00:15:05;100698.94;;;-11.50
76541;BMP280;65385;55.772;37.658;2024-02-14T00:16:08;100702.19;;;-11.48
76541;BMP280;65385;55.772;37.658;2024-02-14T00:17:11;100705.50;;;-11.48
76541;BMP280;65385;55.772;37.658;2024-02-14T00:18:13;100701.47;;;-11.50
76541;BMP280;65385;55.772;37.658;2024-02-14T00:19:15;100706.66;;;-11.53
76541;BMP280;65385;55.772;37.658;2024-02-14T00:20:16;100699.09;;;-11.53
76541;BMP280;65385;55.772;37.658;2024-02-14T00:21:32;100703.31;;;-11.54
76541;BMP280;65385;55.772;37.658;2024-02-14T00:22:34;100706.72;;;-11.55
76541;BMP280;65385;55.772;37.658;2024-02-14T00:23:35;100696.66;;;-11.55
76541;BMP280;65385;55.772;37.658;2024-02-14T00:24:35;100707.53;;;-11.54
76541;BMP280;65385;55.772;37.658;2024-02-14T00:25:37;100707.72;;;-11.57
76541;BMP280;65385;55.772;37.658;2024-02-14T00:26:37;100711.25;;;-11.44
76541;BMP280;65385;55.772;37.658;2024-02-14T00:27:39;100722.63;;;-11.37
76541;BMP280;65385;55.772;37.658;2024-02-14T00:28:41;100707.09;;;-11.45
76541;BMP280;65385;55.772;37.658;2024-02-14T00:29:41;100704.00;;;-11.50
76541;BMP280;65385;55.772;37.658;2024-02-14T00:30:45;100702.38;;;-11.51
76541;BMP280;65385;55.772;37.658;2024-02-14T00:32:06;100701.78;;;-11.56
76541;BMP280;65385;55.772;37.658;2024-02-14T00:33:16;100694.38;;;-11.59
76541;BMP280;65385;55.772;37.658;2024-02-14T00:34:17;100699.44;;;-11.59
76541;BMP280;65385;55.772;37.658;2024-02-14T00:35:18;100707.03;;;-11.61
76541;BMP280;65385;55.772;37.658;2024-02-14T00:36:19;100703.78;;;-11.63
76541;BMP280;65385;55.772;37.658;2024-02-14T00:37:20;100712.28;;;-11.64
76541;BMP280;65385;55.772;37.658;2024-02-14T00:38:20;100708.03;;;-11.63
76541;BMP280;65385;55.772;37.658;2024-02-14T00:39:21;100702.19;;;-11.64
76541;BMP280;65385;55.772;37.658;2024-02-14T00:40:22;100706.41;;;-11.64
76541;BMP280;65385;55.772;37.658;2024-02-14T00:41:23;100705.53;;;-11.63
76541;BMP280;65385;55.772;37.658;2024-02-14T00:42:23;100717.81;;;-11.57
76541;BMP280;65385;55.772;37.658;2024-02-14T00:43:24;100715.41;;;-11.60
76541;BMP280;65385;55.772;37.658;2024-02-14T00:44:25;100720.47;;;-11.60
76541;BMP280;65385;55.772;37.658;2024-02-14T00:45:25;100719.72;;;-11.62
76541;BMP280;65385;55.772;37.658;2024-02-14T00:46:26;100716.50;;;-11.64
76541;BMP280;65385;55.772;37.658;2024-02-14T00:47:27;100711.47;;;-11.64
76541;BMP280;65385;55.772;37.658;2024-02-14T00:48:28;100708.22;;;-11.66
76541;BMP280;65385;55.772;37.658;2024-02-14T00:49:29;100714.13;;;-11.67
76541;BMP280;65385;55.772;37.658;2024-02-14T00:50:29;100709.97;;;-11.68
76541;BMP280;65385;55.772;37.658;2024-02-14T00:51:30;100713.38;;;-11.69
76541;BMP280;65385;55.772;37.658;2024-02-14T00:52:31;100721.84;;;-11.70
76541;BMP280;65385;55.772;37.658;2024-02-14T00:53:31;100729.31;;;-11.69
76541;BMP280;65385;55.772;37.658;2024-02-14T00:54:32;100722.63;;;-11.70
76541;BMP280;65385;55.772;37.658;2024-02-14T00:55:32;100716.91;;;-11.72
76541;BMP280;65385;55.772;37.658;2024-02-14T00:56:33;100731.94;;;-11.70
76541;BMP280;65385;55.772;37.658;2024-02-14T00:57:34;100713.56;;;-11.73
76541;BMP280;65385;55.772;37.658;2024-02-14T00:58:35;100719.50;;;-11.74
76541;BMP280;65385;55.772;37.658;2024-02-14T00:59:35;100712.88;;;-11.76
76541;BMP280;65385;55.772;37.658;2024-02-14T01:00:36;100724.63;;;-11.75
76541;BMP280;65385;55.772;37.658;2024-02-14T01:01:36;100719.72;;;-11.78
76541;BMP280;65385;55.772;37.658;2024-02-14T01:02:37;100726.47;;;-11.79
76541;BMP280;65385;55.772;37.658;2024-02-14T01:03:38;100717.28;;;-11.80
76541;BMP280;65385;55.772;37.658;2024-02-14T01:04:38;100725.75;;;-11.81
76541;BMP280;65385;55.772;37.658;2024-02-14T01:05:39;100726.47;;;-11.79
76541;BMP280;65385;55.772;37.658;2024-02-14T01:06:40;100719.81;;;-11.80
76541;BMP280;65385;55.772;37.658;2024-02-14T01:07:40;100739.06;;;-11.79
76541;BMP280;65385;55.772;37.658;2024-02-14T01:08:41;100731.53;;;-11.79
76541;BMP280;65385;55.772;37.658;2024-02-14T01:09:42;100730.78;;;-11.81
76541;BMP280;65385;55.772;37.658;2024-02-14T01:10:42;100731.53;;;-11.79
76541;BMP280;65385;55.772;37.658;2024-02-14T01:11:43;100746.72;;;-11.80
76541;BMP280;65385;55.772;37.658;2024-02-14T01:12:44;100727.88;;;-11.73
76541;BMP280;65385;55.772;37.658;2024-02-14T01:13:44;100736.97;;;-11.70
76541;BMP280;65385;55.772;37.658;2024-02-14T01:14:45;100728.81;;;-11.76
76541;BMP280;65385;55.772;37.658;2024-02-14T01:15:45;100734.94;;;-11.80
76541;BMP280;65385;55.772;37.658;2024-02-14T01:16:46;100737.59;;;-11.83
76541;BMP280;65385;55.772;37.658;2024-02-14T01:17:47;100727.69;;;-11.86
76541;BMP280;65385;55.772;37.658;2024-02-14T01:18:48;100746.53;;;-11.77
76541;BMP280;65385;55.772;37.658;2024-02-14T01:19:49;100736.72;;;-11.82
76541;BMP280;65385;55.772;37.658;2024-02-14T01:20:50;100728.50;;;-11.85
76541;BMP280;65385;55.772;37.658;2024-02-14T01:21:51;100731.09;;;-11.87
76541;BMP280;65385;55.772;37.658;2024-02-14T01:22:51;100722.78;;;-11.89
76541;BMP280;65385;55.772;37.658;2024-02-14T01:23:58;100741.16;;;-11.87
76541;BMP280;65385;55.772;37.658;2024-02-14T01:24:59;100735.31;;;-11.87
76541;BMP280;65385;55.772;37.658;2024-02-14T01:25:59;100726.19;;;-11.90
76541;BMP280;65385;55.772;37.658;2024-02-14T01:27:00;100728.78;;;-11.91
76541;BMP280;65385;55.772;37.658;2024-02-14T01:28:00;100733.75;;;-11.90
76541;BMP280;65385;55.772;37.658;2024-02-14T01:29:01;100729.53;;;-11.89
76541;BMP280;65385;55.772;37.658;2024-02-14T01:30:02;100739.66;;;-11.91
76541;BMP280;65385;55.772;37.658;2024-02-14T01:31:08;100731.25;;;-11.90
76541;BMP280;65385;55.772;37.658;2024-02-14T01:32:12;100739.66;;;-11.91
76541;BMP280;65385;55.772;37.658;2024-02-14T01:33:12;100741.47;;;-11.93
76541;BMP280;65385;55.772;37.658;2024-02-14T01:34:13;100736.44;;;-11.93
76541;BMP280;65385;55.772;37.658;2024-02-14T01:35:14;100739.66;;;-11.91
76541;BMP280;65385;55.772;37.658;2024-02-14T01:36:15;100745.47;;;-11.89
76541;BMP280;65385;55.772;37.658;2024-02-14T01:37:16;100746.22;;;-11.87
76541;BMP280;65385;55.772;37.658;2024-02-14T01:38:17;100752.25;;;-11.91
76541;BMP280;65385;55.772;37.658;2024-02-14T01:39:18;100743.25;;;-11.95
76541;BMP280;65385;55.772;37.658;2024-02-14T01:40:19;100754.22;;;-11.96
76541;BMP280;65385;55.772;37.658;2024-02-14T01:41:38;100748.41;;;-11.98
76541;BMP280;65385;55.772;37.658;2024-02-14T01:42:38;100746.06;;;-12.01
76541;BMP280;65385;55.772;37.658;2024-02-14T01:43:39;100754.59;;;-12.03
76541;BMP280;65385;55.772;37.658;2024-02-14T01:44:40;100745.91;;;-11.98
76541;BMP280;65385;55.772;37.658;2024-02-14T01:45:40;100745.25;;;-12.01
76541;BMP280;65385;55.772;37.658;2024-02-14T01:46:47;100747.03;;;-12.03
76541;BMP280;65385;55.772;37.658;2024-02-14T01:47:48;100755.53;;;-12.06
76541;BMP280;65385;55.772;37.658;2024-02-14T01:48:50;100763.09;;;-12.06
76541;BMP280;65385;55.772;37.658;2024-02-14T01:49:52;100751.31;;;-12.06
76541;BMP280;65385;55.772;37.658;2024-02-14T01:50:52;100762.22;;;-12.05
76541;BMP280;65385;55.772;37.658;2024-02-14T01:51:53;100765.63;;;-12.06
76541;BMP280;65385;55.772;37.658;2024-02-14T01:52:59;100751.50;;;-12.09
76541;BMP280;65385;55.772;37.658;2024-02-14T01:54:00;100761.50;;;-12.07
76541;BMP280;65385;55.772;37.658;2024-02-14T01:55:02;100754.00;;;-12.09
76541;BMP280;65385;55.772;37.658;2024-02-14T01:56:07;100764.16;;;-12.10
76541;BMP280;65385;55.772;37.658;2024-02-14T01:57:08;100775.13;;;-12.11
76541;BMP280;65385;55.772;37.658;2024-02-14T01:58:11;100779.28;;;-12.10
76541;BMP280;65385;55.772;37.658;2024-02-14T01:59:13;100757.16;;;-12.05
76541;BMP280;65385;55.772;37.658;2024-02-14T02:00:14;100763.88;;;-12.04
76541;BMP280;65385;55.772;37.658;2024-02-14T02:01:18;100764.00;;;-12.07
76541;BMP280;65385;55.772;37.658;2024-02-14T02:02:19;100758.75;;;-12.02
76541;BMP280;65385;55.772;37.658;2024-02-14T02:03:19;100761.38;;;-12.06
76541;BMP280;65385;55.772;37.658;2024-02-14T02:04:21;100765.13;;;-11.95
76541;BMP280;65385;55.772;37.658;2024-02-14T02:05:22;100761.91;;;-11.99
76541;BMP280;65385;55.772;37.658;2024-02-14T02:06:23;100763.88;;;-12.04
76541;BMP280;65385;55.772;37.658;2024-02-14T02:07:23;100776.91;;;-11.96
76541;BMP280;65385;55.772;37.658;2024-02-14T02:08:25;100759.56;;;-12.02
76541;BMP280;65385;55.772;37.658;2024-02-14T02:09:26;100770.38;;;-12.00
76541;BMP280;65385;55.772;37.658;2024-02-14T02:10:27;100773.50;;;-11.95
76541;BMP280;65385;55.772;37.658;2024-02-14T02:11:50;100766.31;;;-12.02
76541;BMP280;65385;55.772;37.658;2024-02-14T02:13:10;100760.75;;;-12.09
76541;BMP280;65385;55.772;37.658;2024-02-14T02:14:31;100757.63;;;-12.14
76541;BMP280;65385;55.772;37.658;2024-02-14T02:15:53;100765.16;;;-12.14
76541;BMP280;65385;55.772;37.658;2024-02-14T02:17:13;100773.44;;;-12.11
76541;BMP280;65385;55.772;37.658;2024-02-14T02:18:34;100769.19;;;-12.10
76541;BMP280;65385;55.772;37.658;2024-02-14T02:19:54;100777.94;;;-12.17
76541;BMP280;65385;55.772;37.658;2024-02-14T02:21:08;100784.59;;;-12.16
76541;BMP280;65385;55.772;37.658;2024-02-14T02:22:09;100779.56;;;-12.16
76541;BMP280;65385;55.772;37.658;2024-02-14T02:23:29;100776.44;;;-12.21
76541;BMP280;65385;55.772;37.658;2024-02-14T02:24:31;100777.25;;;-12.21
76541;BMP280;65385;55.772;37.658;2024-02-14T02:25:32;100790.09;;;-12.25
76541;BMP280;65385;55.772;37.658;2024-02-14T02:26:48;100770.69;;;-12.23
76541;BMP280;65385;55.772;37.658;2024-02-14T02:28:09;100775.03;;;-12.27
76541;BMP280;65385;55.772;37.658;2024-02-14T02:29:13;100779.34;;;-12.29
76541;BMP280;65385;55.772;37.658;2024-02-14T02:30:15;100786.97;;;-12.30
76541;BMP280;65385;55.772;37.658;2024-02-14T02:31:17;100781.19;;;-12.32
76541;BMP280;65385;55.772;37.658;2024-02-14T02:32:19;100761.06;;;-12.32
76541;BMP280;65385;55.772;37.658;2024-02-14T02:33:20;100781.94;;;-12.30
76541;BMP280;65385;55.772;37.658;2024-02-14T02:34:22;100786.97;;;-12.30
76541;BMP280;65385;55.772;37.658;2024-02-14T02:35:22;100782.88;;;-12.33
76541;BMP280;65385;55.772;37.658;2024-02-14T02:36:44;100778.78;;;-12.35
76541;BMP280;65385;55.772;37.658;2024-02-14T02:38:04;100783.00;;;-12.36
76541;BMP280;65385;55.772;37.658;2024-02-14T02:39:25;100790.22;;;-12.28
76541;BMP280;65385;55.772;37.658;2024-02-14T02:40:45;100790.94;;;-12.26
76541;BMP280;65385;55.772;37.658;2024-02-14T02:42:06;100785.06;;;-12.25
76541;BMP280;65385;55.772;37.658;2024-02-14T02:43:33;100788.69;;;-12.31
76541;BMP280;65385;55.772;37.658;2024-02-14T02:44:53;100787.97;;;-12.34
76541;BMP280;65385;55.772;37.658;2024-02-14T02:46:23;100798.22;;;-12.38
76541;BMP280;65385;55.772;37.658;2024-02-14T02:47:44;100798.28;;;-12.39
76541;BMP280;65385;55.772;37.658;2024-02-14T02:49:04;100794.38;;;-12.45
76541;BMP280;65385;55.772;37.658;2024-02-14T02:50:08;100795.78;;;-12.39
76541;BMP280;65385;55.772;37.658;2024-02-14T02:51:29;100790.97;;;-12.44
76541;BMP280;65385;55.772;37.658;2024-02-14T02:52:50;100785.09;;;-12.44
76541;BMP280;65385;55.772;37.658;2024-02-14T02:54:10;100799.47;;;-12.46
76541;BMP280;65385;55.772;37.658;2024-02-14T02:55:32;100790.22;;;-12.46
76541;BMP280;65385;55.772;37.658;2024-02-14T02:56:41;100800.31;;;-12.47
76541;BMP280;65385;55.772;37.658;2024-02-14T02:57:43;100803.00;;;-12.50
76541;BMP280;65385;55.772;37.658;2024-02-14T02:58:45;100798.69;;;-12.48
76541;BMP280;65385;55.772;37.658;2024-02-14T02:59:47;100790.50;;;-12.52
76541;BMP280;65385;55.772;37.658;2024-02-14T03:00:48;100793.03;;;-12.52
76541;BMP280;65385;55.772;37.658;2024-02-14T03:01:55;100798.78;;;-12.50
76541;BMP280;65385;55.772;37.658;2024-02-14T03:03:15;100801.28;;;-12.50
76541;BMP280;65385;55.772;37.658;2024-02-14T03:04:32;100806.84;;;-12.43
76541;BMP280;65385;55.772;37.658;2024-02-14T03:05:54;100808.13;;;-12.34
76541;BMP280;65385;55.772;37.658;2024-02-14T03:07:17;100801.09;;;-12.45
76541;BMP280;65385;55.772;37.658;2024-02-14T03:08:37;100814.50;;;-12.45
76541;BMP280;65385;55.772;37.658;2024-02-14T03:09:58;100817.91;;;-12.46
76541;BMP280;65385;55.772;37.658;2024-02-14T03:11:18;100809.47;;;-12.45
76541;BMP280;65385;55.772;37.658;2024-02-14T03:12:39;100812.16;;;-12.49
76541;BMP280;65385;55.772;37.658;2024-02-14T03:14:00;100809.81;;;-12.52
76541;BMP280;65385;55.772;37.658;2024-02-14T03:15:20;100823.06;;;-12.49
76541;BMP280;65385;55.772;37.658;2024-02-14T03:16:23;100810.63;;;-12.52
76541;BMP280;65385;55.772;37.658;2024-02-14T03:17:25;100822.53;;;-12.55
76541;BMP280;65385;55.772;37.658;2024-02-14T03:18:25;100823.22;;;-12.52
76541;BMP280;65385;55.772;37.658;2024-02-14T03:19:26;100810.72;;;-12.53
76541;BMP280;65385;55.772;37.658;2024-02-14T03:20:30;100818.31;;;-12.55
76541;BMP280;65385;55.772;37.658;2024-02-14T03:21:31;100815.84;;;-12.56
76541;BMP280;65385;55.772;37.658;2024-02-14T03:22:36;100808.50;;;-12.61
76541;BMP280;65385;55.772;37.658;2024-02-14T03:23:37;100819.59;;;-12.65
76541;BMP280;65385;55.772;37.658;2024-02-14T03:24:40;100823.94;;;-12.67
76541;BMP280;65385;55.772;37.658;2024-02-14T03:25:44;100817.19;;;-12.66
76541;BMP280;65385;55.772;37.658;2024-02-14T03:26:44;100817.91;;;-12.64
76541;BMP280;65385;55.772;37.658;2024-02-14T03:27:45;100828.88;;;-12.65
76541;BMP280;65385;55.772;37.658;2024-02-14T03:28:47;100811.91;;;-12.62
76541;BMP280;65385;55.772;37.658;2024-02-14T03:29:49;100820.53;;;-12.66
76541;BMP280;65385;55.772;37.658;2024-02-14T03:30:51;100821.41;;;-12.67
76541;BMP280;65385;55.772;37.658;2024-02-14T03:31:52;100823.16;;;-12.69
76541;BMP280;65385;55.772;37.658;2024-02-14T03:32:54;100822.53;;;-12.55
76541;BMP280;65385;55.772;37.658;2024-02-14T03:33:56;100826.63;;;-12.53
76541;BMP280;65385;55.772;37.658;2024-02-14T03:34:56;100829.97;;;-12.52
76541;BMP280;65385;55.772;37.658;2024-02-14T03:35:57;100835.03;;;-12.54
76541;BMP280;65385;55.772;37.658;2024-02-14T03:36:58;100824.50;;;-12.62
76541;BMP280;65385;55.772;37.658;2024-02-14T03:38:01;100823.75;;;-12.64
76541;BMP280;65385;55.772;37.658;2024-02-14T03:39:03;100827.97;;;-12.64
76541;BMP280;65385;55.772;37.658;2024-02-14T03:40:05;100838.25;;;-12.69
76541;BMP280;65385;55.772;37.658;2024-02-14T03:41:07;100835.72;;;-12.69
76541;BMP280;65385;55.772;37.658;2024-02-14T03:42:08;100833.16;;;-12.67
76541;BMP280;65385;55.772;37.658;2024-02-14T03:43:08;100825.66;;;-12.69
76541;BMP280;65385;55.772;37.658;2024-02-14T03:44:12;100839.31;;;-12.73
76541;BMP280;65385;55.772;37.658;2024-02-14T03:45:14;100836.00;;;-12.75
76541;BMP280;65385;55.772;37.658;2024-02-14T03:46:14;100829.06;;;-12.70
76541;BMP280;65385;55.772;37.658;2024-02-14T03:47:15;100839.94;;;-12.70
76541;BMP280;65385;55.772;37.658;2024-02-14T03:48:16;100833.34;;;-12.72
76541;BMP280;65385;55.772;37.658;2024-02-14T03:49:17;100842.47;;;-12.70
76541;BMP280;65385;55.772;37.658;2024-02-14T03:50:18;100846.75;;;-12.72
76541;BMP280;65385;55.772;37.658;2024-02-14T03:51:19;100833.50;;;-12.75
76541;BMP280;65385;55.772;37.658;2024-02-14T03:52:20;100840.38;;;-12.79
76541;BMP280;65385;55.772;37.658;2024-02-14T03:53:23;100842.97;;;-12.80
76541;BMP280;65385;55.772;37.658;2024-02-14T03:54:23;100840.56;;;-12.83
76541;BMP280;65385;55.772;37.658;2024-02-14T03:55:24;100840.03;;;-12.71
76541;BMP280;65385;55.772;37.658;2024-02-14T03:56:25;100834.38;;;-12.76
76541;BMP280;65385;55.772;37.658;2024-02-14T03:57:27;100837.56;;;-12.73
76541;BMP280;65385;55.772;37.658;2024-02-14T03:58:30;100840.31;;;-12.77
76541;BMP280;65385;55.772;37.658;2024-02-14T03:59:31;100846.22;;;-12.78
76541;BMP280;65385;55.772;37.658;2024-02-14T04:00:33;100829.63;;;-12.82
76541;BMP280;65385;55.772;37.658;2024-02-14T04:01:34;100853.97;;;-12.83
76541;BMP280;65385;55.772;37.658;2024-02-14T04:02:34;100834.72;;;-12.84
76541;BMP280;65385;55.772;37.658;2024-02-14T04:03:35;100842.41;;;-12.87
76541;BMP280;65385;55.772;37.658;2024-02-14T04:04:37;100839.81;;;-12.85
76541;BMP280;65385;55.772;37.658;2024-02-14T04:05:39;100854.16;;;-12.87
76541;BMP280;65385;55.772;37.658;2024-02-14T04:06:40;100848.13;;;-12.83
76541;BMP280;65385;55.772;37.658;2024-02-14T04:07:43;100845.81;;;-12.88
76541;BMP280;65385;55.772;37.658;2024-02-14T04:08:49;100848.53;;;-12.92
76541;BMP280;65385;55.772;37.658;2024-02-14T04:09:50;100846.91;;;-12.93
76541;BMP280;65385;55.772;37.658;2024-02-14T04:10:51;100840.19;;;-12.94
76541;BMP280;65385;55.772;37.658;2024-02-14T04:11:54;100849.53;;;-12.96
76541;BMP280;65385;55.772;37.658;2024-02-14T04:12:55;100840.31;;;-12.96
76541;BMP280;65385;55.772;37.658;2024-02-14T04:13:56;100851.78;;;-12.90
76541;BMP280;65385;55.772;37.658;2024-02-14T04:14:56;100851.03;;;-12.92
76541;BMP280;65385;55.772;37.658;2024-02-14T04:15:57;100851.94;;;-12.93
76541;BMP280;65385;55.772;37.658;2024-02-14T04:17:05;100855.13;;;-12.90
76541;BMP280;65385;55.772;37.658;2024-02-14T04:18:10;100857.78;;;-12.93
76541;BMP280;65385;55.772;37.658;2024-02-14T04:19:11;100867.16;;;-12.96
76541;BMP280;65385;55.772;37.658;2024-02-14T04:20:13;100853.81;;;-12.98
76541;BMP280;65385;55.772;37.658;2024-02-14T04:21:14;100869.72;;;-12.98
76541;BMP280;65385;55.772;37.658;2024-02-14T04:22:14;100854.66;;;-12.98
76541;BMP280;65385;55.772;37.658;2024-02-14T04:23:15;100853.81;;;-12.98
76541;BMP280;65385;55.772;37.658;2024-02-14T04:24:16;100853.28;;;-12.86
76541;BMP280;65385;55.772;37.658;2024-02-14T04:25:16;100854.38;;;-12.92
76541;BMP280;65385;55.772;37.658;2024-02-14T04:26:20;100853.81;;;-12.98
76541;BMP280;65385;55.772;37.658;2024-02-14T04:27:21;100858.25;;;-13.04
76541;BMP280;65385;55.772;37.658;2024-02-14T04:28:21;100852.47;;;-13.06
76541;BMP280;65385;55.772;37.658;2024-02-14T04:29:22;100850.03;;;-13.09
76541;BMP280;65385;55.772;37.658;2024-02-14T04:30:23;100858.38;;;-13.07
76541;BMP280;65385;55.772;37.658;2024-02-14T04:31:39;100855.06;;;-13.09
76541;BMP280;65385;55.772;37.658;2024-02-14T04:32:45;100859.06;;;-13.03
76541;BMP280;65385;55.772;37.658;2024-02-14T04:33:45;100870.47;;;-12.96
76541;BMP280;65385;55.772;37.658;2024-02-14T04:34:52;100865.78;;;-13.04
76541;BMP280;65385;55.772;37.658;2024-02-14T04:35:53;100863.41;;;-13.07
76541;BMP280;65385;55.772;37.658;2024-02-14T04:36:54;100863.44;;;-13.08
76541;BMP280;65385;55.772;37.658;2024-02-14T04:37:55;100856.00;;;-13.10
76541;BMP280;65385;55.772;37.658;2024-02-14T04:38:57;100858.31;;;-13.05
76541;BMP280;65385;55.772;37.658;2024-02-14T04:39:57;100860.09;;;-13.09
76541;BMP280;65385;55.772;37.658;2024-02-14T04:40:58;100867.41;;;-13.03
76541;BMP280;65385;55.772;37.658;2024-02-14T04:41:59;100865.13;;;-13.09
76541;BMP280;65385;55.772;37.658;2024-02-14T04:43:00;100862.72;;;-13.10
76541;BMP280;65385;55.772;37.658;2024-02-14T04:44:00;100860.28;;;-13.12
76541;BMP280;65385;55.772;37.658;2024-02-14T04:45:01;100867.00;;;-13.12
76541;BMP280;65385;55.772;37.658;2024-02-14T04:46:04;100869.56;;;-13.14
76541;BMP280;65385;55.772;37.658;2024-02-14T04:47:07;100864.53;;;-13.14
76541;BMP280;65385;55.772;37.658;2024-02-14T04:48:10;100871.22;;;-13.13
76541;BMP280;65385;55.772;37.658;2024-02-14T04:49:10;100883.00;;;-13.15
76541;BMP280;65385;55.772;37.658;2024-02-14T04:50:11;100866.06;;;-13.10
76541;BMP280;65385;55.772;37.658;2024-02-14T04:51:12;100879.41;;;-13.09
76541;BMP280;65385;55.772;37.658;2024-02-14T04:52:13;100882.75;;;-13.09
76541;BMP280;65385;55.772;37.658;2024-02-14T04:53:14;100877.88;;;-13.12
76541;BMP280;65385;55.772;37.658;2024-02-14T04:54:14;100876.25;;;-13.13
76541;BMP280;65385;55.772;37.658;2024-02-14T04:55:16;100882.09;;;-13.12
76541;BMP280;65385;55.772;37.658;2024-02-14T04:56:17;100871.97;;;-13.11
76541;BMP280;65385;55.772;37.658;2024-02-14T04:57:18;100878.25;;;-13.02
76541;BMP280;65385;55.772;37.658;2024-02-14T04:58:20;100890.06;;;-13.03
76541;BMP280;65385;55.772;37.658;2024-02-14T04:59:21;100889.31;;;-13.05
76541;BMP280;65385;55.772;37.658;2024-02-14T05:00:21;100895.16;;;-13.04
76541;BMP280;65385;55.772;37.658;2024-02-14T05:01:22;100890.25;;;-13.07
76541;BMP280;65385;55.772;37.658;2024-02-14T05:02:23;100887.66;;;-13.06
76541;BMP280;65385;55.772;37.658;2024-02-14T05:03:24;100895.00;;;-13.01
76541;BMP280;65385;55.772;37.658;2024-02-14T05:04:24;100884.81;;;-12.98
76541;BMP280;65385;55.772;37.658;2024-02-14T05:05:25;100897.00;;;-12.89
76541;BMP280;65385;55.772;37.658;2024-02-14T05:06:31;100895.31;;;-12.88
76541;BMP280;65385;55.772;37.658;2024-02-14T05:07:32;100885.88;;;-12.83
76541;BMP280;65385;55.772;37.658;2024-02-14T05:08:34;100890.78;;;-12.80
76541;BMP280;65385;55.772;37.658;2024-02-14T05:09:35;100899.69;;;-12.73
76541;BMP280;65385;55.772;37.658;2024-02-14T05:10:35;100907.84;;;-12.68
76541;BMP280;65385;55.772;37.658;2024-02-14T05:11:36;100897.13;;;-12.53
76541;BMP280;65385;55.772;37.658;2024-02-14T05:12:37;100897.38;;;-12.59
76541;BMP280;65385;55.772;37.658;2024-02-14T05:13:38;100897.50;;;-12.62
76541;BMP280;65385;55.772;37.658;2024-02-14T05:14:41;100895.59;;;-12.57
76541;BMP280;65385;55.772;37.658;2024-02-14T05:15:42;100903.84;;;-12.53
76541;BMP280;65385;55.772;37.658;2024-02-14T05:16:43;100900.34;;;-12.51
76541;BMP280;65385;55.772;37.658;2024-02-14T05:17:44;100915.56;;;-12.52
76541;BMP280;65385;55.772;37.658;2024-02-14T05:18:44;100899.81;;;-12.57
76541;BMP280;65385;55.772;37.658;2024-02-14T05:19:45;100909.06;;;-12.58
76541;BMP280;65385;55.772;37.658;2024-02-14T05:20:46;100903.31;;;-12.60
76541;BMP280;65385;55.772;37.658;2024-02-14T05:21:47;100906.66;;;-12.59
76541;BMP280;65385;55.772;37.658;2024-02-14T05:22:47;100904.94;;;-12.59
76541;BMP280;65385;55.772;37.658;2024-02-14T05:23:48;100907.28;;;-12.56
76541;BMP280;65385;55.772;37.658;2024-02-14T05:24:50;100909.47;;;-12.48
76541;BMP280;65385;55.772;37.658;2024-02-14T05:25:50;100900.22;;;-12.48
76541;BMP280;65385;55.772;37.658;2024-02-14T05:26:51;100912.06;;;-12.50
76541;BMP280;65385;55.772;37.658;2024-02-14T05:27:53;100903.78;;;-12.52
76541;BMP280;65385;55.772;37.658;2024-02-14T05:28:53;100907.22;;;-12.54
76541;BMP280;65385;55.772;37.658;2024-02-14T05:29:54;100912.06;;;-12.50
76541;BMP280;65385;55.772;37.658;2024-02-14T05:30:56;100895.19;;;-12.48
76541;BMP280;65385;55.772;37.658;2024-02-14T05:32:09;100896.94;;;-12.50
76541;BMP280;65385;55.772;37.658;2024-02-14T05:33:10;100914.50;;;-12.48
76541;BMP280;65385;55.772;37.658;2024-02-14T05:34:11;100907.66;;;-12.45
76541;BMP280;65385;55.772;37.658;2024-02-14T05:35:12;100914.06;;;-12.38
76541;BMP280;65385;55.772;37.658;2024-02-14T05:36:12;100913.88;;;-12.34
76541;BMP280;65385;55.772;37.658;2024-02-14T05:37:13;100907.56;;;-12.24
76541;BMP280;65385;55.772;37.658;2024-02-14T05:38:14;100911.56;;;-12.20
76541;BMP280;65385;55.772;37.658;2024-02-14T05:39:14;100913.97;;;-12.17
76541;BMP280;65385;55.772;37.658;2024-02-14T05:40:16;100912.78;;;-12.10
76541;BMP280;65385;55.772;37.658;2024-02-14T05:41:16;100908.97;;;-12.00
76541;BMP280;65385;55.772;37.658;2024-02-14T05:42:18;100923.03;;;-11.96
76541;BMP280;65385;55.772;37.658;2024-02-14T05:43:19;100913.78;;;-11.95
76541;BMP280;65385;55.772;37.658;2024-02-14T05:44:20;100915.13;;;-11.88
76541;BMP280;65385;55.772;37.658;2024-02-14T05:45:22;100919.09;;;-11.84
76541;BMP280;65385;55.772;37.658;2024-02-14T05:46:23;100913.25;;;-11.85
76541;BMP280;65385;55.772;37.658;2024-02-14T05:47:24;100917.28;;;-11.81
76541;BMP280;65385;55.772;37.658;2024-02-14T05:48:26;100923.97;;;-11.80
76541;BMP280;65385;55.772;37.658;2024-02-14T05:49:26;100910.28;;;-11.76
76541;BMP280;65385;55.772;37.658;2024-02-14T05:50:27;100925.31;;;-11.73
76541;BMP280;65385;55.772;37.658;2024-02-14T05:51:28;100919.00;;;-11.64